Miami, Florida
Traffic Map
Current Weather Conditions
Miami, Florida
Overcast
Overcast
28°
Feels Like: 31°
Wind Chill: 28° Ceiling: 13000
Heat Index: 31° Visibility: 10mi
Dew Point: 21° Wind: 6mph
Humidity: 65% Direction: 280° (W)
Pressure: 29.97in Gusts: 0mph
Raw Report DataKMIA 022153Z 28005KT 10SM SCT035CB SCT075 BKN130 OVC250 28/21 A2997 RMK AO2 RAE52 SLP148 CB SW-NW-NE MOV N P0000 T02830211
Traffic Incident Summary
Active as of:
Severity:
Category:
InformationThere was an issue retrieving the traffic information for this location. Please try a different location or try again shortly.
Advertisements
Track Severe Weather on mobile